sensor_id;sensor_type;location;lat;lon;timestamp;P1;durP1;ratioP1;P2;durP2;ratioP2
53971;SDS011;40530;53.062;6.078;2023-05-14T00:01:38;19.42;;;7.75;;
53971;SDS011;40530;53.062;6.078;2023-05-14T00:04:04;10.38;;;6.03;;
53971;SDS011;40530;53.062;6.078;2023-05-14T00:06:30;12.48;;;6.75;;
53971;SDS011;40530;53.062;6.078;2023-05-14T00:08:56;16.45;;;6.47;;
53971;SDS011;40530;53.062;6.078;2023-05-14T00:11:22;10.25;;;6.43;;
53971;SDS011;40530;53.062;6.078;2023-05-14T00:13:49;9.80;;;6.20;;
53971;SDS011;40530;53.062;6.078;2023-05-14T00:16:15;12.68;;;6.55;;
53971;SDS011;40530;53.062;6.078;2023-05-14T00:18:41;9.25;;;6.45;;
53971;SDS011;40530;53.062;6.078;2023-05-14T00:21:07;8.45;;;5.80;;
53971;SDS011;40530;53.062;6.078;2023-05-14T00:23:33;13.35;;;6.07;;
53971;SDS011;40530;53.062;6.078;2023-05-14T00:25:59;14.20;;;6.50;;
53971;SDS011;40530;53.062;6.078;2023-05-14T00:28:25;11.52;;;6.07;;
53971;SDS011;40530;53.062;6.078;2023-05-14T00:30:51;12.10;;;6.13;;
53971;SDS011;40530;53.062;6.078;2023-05-14T00:33:17;13.07;;;6.63;;
53971;SDS011;40530;53.062;6.078;2023-05-14T00:35:43;14.48;;;6.93;;
53971;SDS011;40530;53.062;6.078;2023-05-14T00:38:09;12.10;;;6.03;;
53971;SDS011;40530;53.062;6.078;2023-05-14T00:40:40;10.63;;;5.78;;
53971;SDS011;40530;53.062;6.078;2023-05-14T00:43:09;9.52;;;6.22;;
53971;SDS011;40530;53.062;6.078;2023-05-14T00:45:35;14.10;;;6.40;;
53971;SDS011;40530;53.062;6.078;2023-05-14T00:48:01;10.27;;;6.47;;
53971;SDS011;40530;53.062;6.078;2023-05-14T00:50:28;10.30;;;6.78;;
53971;SDS011;40530;53.062;6.078;2023-05-14T00:52:54;10.57;;;6.82;;
53971;SDS011;40530;53.062;6.078;2023-05-14T00:55:20;10.52;;;6.80;;
53971;SDS011;40530;53.062;6.078;2023-05-14T00:57:46;10.45;;;6.57;;
53971;SDS011;40530;53.062;6.078;2023-05-14T01:00:12;11.60;;;7.20;;
53971;SDS011;40530;53.062;6.078;2023-05-14T01:02:39;9.20;;;7.32;;
53971;SDS011;40530;53.062;6.078;2023-05-14T01:05:05;11.45;;;7.53;;
53971;SDS011;40530;53.062;6.078;2023-05-14T01:07:47;18.40;;;7.82;;
53971;SDS011;40530;53.062;6.078;2023-05-14T01:10:16;11.00;;;7.70;;
53971;SDS011;40530;53.062;6.078;2023-05-14T01:12:51;14.10;;;7.07;;
53971;SDS011;40530;53.062;6.078;2023-05-14T01:15:22;11.45;;;7.45;;
53971;SDS011;40530;53.062;6.078;2023-05-14T01:17:53;12.15;;;8.07;;
53971;SDS011;40530;53.062;6.078;2023-05-14T01:20:21;13.07;;;7.55;;
53971;SDS011;40530;53.062;6.078;2023-05-14T01:22:47;8.98;;;6.65;;
53971;SDS011;40530;53.062;6.078;2023-05-14T01:25:13;8.57;;;6.90;;
53971;SDS011;40530;53.062;6.078;2023-05-14T01:27:51;15.38;;;7.63;;
53971;SDS011;40530;53.062;6.078;2023-05-14T01:32:52;11.30;;;8.65;;
53971;SDS011;40530;53.062;6.078;2023-05-14T01:35:20;13.75;;;6.72;;
53971;SDS011;40530;53.062;6.078;2023-05-14T01:37:47;11.95;;;7.72;;
53971;SDS011;40530;53.062;6.078;2023-05-14T01:40:13;12.57;;;7.85;;
53971;SDS011;40530;53.062;6.078;2023-05-14T01:42:39;11.90;;;7.60;;
53971;SDS011;40530;53.062;6.078;2023-05-14T01:45:05;14.73;;;9.10;;
53971;SDS011;40530;53.062;6.078;2023-05-14T01:47:32;19.83;;;8.95;;
53971;SDS011;40530;53.062;6.078;2023-05-14T01:49:58;19.13;;;9.63;;
53971;SDS011;40530;53.062;6.078;2023-05-14T01:52:24;14.98;;;7.97;;
53971;SDS011;40530;53.062;6.078;2023-05-14T01:54:50;12.07;;;8.75;;
53971;SDS011;40530;53.062;6.078;2023-05-14T01:57:16;11.98;;;8.35;;
53971;SDS011;40530;53.062;6.078;2023-05-14T01:59:42;12.25;;;7.53;;
53971;SDS011;40530;53.062;6.078;2023-05-14T02:02:08;10.95;;;7.47;;
53971;SDS011;40530;53.062;6.078;2023-05-14T02:04:34;15.05;;;8.25;;
53971;SDS011;40530;53.062;6.078;2023-05-14T02:07:00;10.75;;;7.55;;
53971;SDS011;40530;53.062;6.078;2023-05-14T02:09:26;14.65;;;8.43;;
53971;SDS011;40530;53.062;6.078;2023-05-14T02:11:52;18.30;;;8.38;;
53971;SDS011;40530;53.062;6.078;2023-05-14T02:14:18;18.05;;;8.20;;
53971;SDS011;40530;53.062;6.078;2023-05-14T02:16:44;10.52;;;7.38;;
53971;SDS011;40530;53.062;6.078;2023-05-14T02:19:10;12.07;;;8.60;;
53971;SDS011;40530;53.062;6.078;2023-05-14T02:21:36;10.55;;;8.55;;
53971;SDS011;40530;53.062;6.078;2023-05-14T02:24:02;16.08;;;9.18;;
53971;SDS011;40530;53.062;6.078;2023-05-14T02:26:28;22.70;;;11.07;;
53971;SDS011;40530;53.062;6.078;2023-05-14T02:28:54;19.08;;;8.93;;
53971;SDS011;40530;53.062;6.078;2023-05-14T02:31:20;19.25;;;9.80;;
53971;SDS011;40530;53.062;6.078;2023-05-14T02:33:46;13.50;;;8.40;;
53971;SDS011;40530;53.062;6.078;2023-05-14T02:36:12;18.55;;;8.90;;
53971;SDS011;40530;53.062;6.078;2023-05-14T02:38:38;16.63;;;8.88;;
53971;SDS011;40530;53.062;6.078;2023-05-14T02:41:04;14.13;;;9.50;;
53971;SDS011;40530;53.062;6.078;2023-05-14T02:43:30;15.55;;;9.60;;
53971;SDS011;40530;53.062;6.078;2023-05-14T02:45:56;9.90;;;8.07;;
53971;SDS011;40530;53.062;6.078;2023-05-14T02:48:22;15.80;;;9.30;;
53971;SDS011;40530;53.062;6.078;2023-05-14T02:50:48;14.45;;;9.30;;
53971;SDS011;40530;53.062;6.078;2023-05-14T02:53:16;15.57;;;9.00;;
53971;SDS011;40530;53.062;6.078;2023-05-14T02:55:42;16.85;;;10.10;;
53971;SDS011;40530;53.062;6.078;2023-05-14T02:58:08;13.70;;;9.80;;
53971;SDS011;40530;53.062;6.078;2023-05-14T03:00:34;14.85;;;8.43;;
53971;SDS011;40530;53.062;6.078;2023-05-14T03:03:00;17.63;;;8.88;;
53971;SDS011;40530;53.062;6.078;2023-05-14T03:05:26;21.08;;;8.75;;
53971;SDS011;40530;53.062;6.078;2023-05-14T03:07:52;15.50;;;9.10;;
53971;SDS011;40530;53.062;6.078;2023-05-14T03:10:18;11.88;;;8.70;;
53971;SDS011;40530;53.062;6.078;2023-05-14T03:12:44;14.45;;;9.23;;
53971;SDS011;40530;53.062;6.078;2023-05-14T03:15:11;22.50;;;9.73;;
53971;SDS011;40530;53.062;6.078;2023-05-14T03:17:37;15.82;;;9.60;;
53971;SDS011;40530;53.062;6.078;2023-05-14T03:20:03;16.02;;;9.65;;
53971;SDS011;40530;53.062;6.078;2023-05-14T03:22:29;17.38;;;9.90;;
53971;SDS011;40530;53.062;6.078;2023-05-14T03:24:55;12.50;;;8.32;;
53971;SDS011;40530;53.062;6.078;2023-05-14T03:27:21;19.90;;;9.07;;
53971;SDS011;40530;53.062;6.078;2023-05-14T03:29:47;20.83;;;10.27;;
53971;SDS011;40530;53.062;6.078;2023-05-14T03:32:13;14.43;;;10.27;;
53971;SDS011;40530;53.062;6.078;2023-05-14T03:34:39;16.83;;;9.50;;
53971;SDS011;40530;53.062;6.078;2023-05-14T03:37:06;17.45;;;10.18;;
53971;SDS011;40530;53.062;6.078;2023-05-14T03:39:32;17.48;;;9.32;;
53971;SDS011;40530;53.062;6.078;2023-05-14T03:41:58;15.65;;;9.18;;
53971;SDS011;40530;53.062;6.078;2023-05-14T03:44:24;21.55;;;10.88;;
53971;SDS011;40530;53.062;6.078;2023-05-14T03:46:50;16.77;;;9.95;;
53971;SDS011;40530;53.062;6.078;2023-05-14T03:49:16;14.13;;;10.32;;
53971;SDS011;40530;53.062;6.078;2023-05-14T03:51:42;22.63;;;12.63;;
53971;SDS011;40530;53.062;6.078;2023-05-14T03:54:08;26.67;;;12.45;;
53971;SDS011;40530;53.062;6.078;2023-05-14T03:56:34;27.45;;;14.60;;
53971;SDS011;40530;53.062;6.078;2023-05-14T03:59:00;21.17;;;9.20;;
53971;SDS011;40530;53.062;6.078;2023-05-14T04:01:26;22.00;;;8.57;;
53971;SDS011;40530;53.062;6.078;2023-05-14T04:03:52;18.08;;;7.97;;
53971;SDS011;40530;53.062;6.078;2023-05-14T04:06:18;23.88;;;8.00;;
53971;SDS011;40530;53.062;6.078;2023-05-14T04:08:44;21.52;;;9.40;;
53971;SDS011;40530;53.062;6.078;2023-05-14T04:11:10;20.50;;;8.27;;
53971;SDS011;40530;53.062;6.078;2023-05-14T04:13:36;24.10;;;8.70;;
53971;SDS011;40530;53.062;6.078;2023-05-14T04:16:02;22.02;;;8.52;;
53971;SDS011;40530;53.062;6.078;2023-05-14T04:18:29;16.50;;;8.38;;
53971;SDS011;40530;53.062;6.078;2023-05-14T04:20:58;19.50;;;8.90;;
53971;SDS011;40530;53.062;6.078;2023-05-14T04:23:24;24.98;;;8.75;;
53971;SDS011;40530;53.062;6.078;2023-05-14T04:25:50;22.70;;;9.13;;
53971;SDS011;40530;53.062;6.078;2023-05-14T04:28:16;28.92;;;8.45;;
53971;SDS011;40530;53.062;6.078;2023-05-14T04:30:43;28.83;;;12.27;;
53971;SDS011;40530;53.062;6.078;2023-05-14T04:33:09;21.90;;;9.65;;
53971;SDS011;40530;53.062;6.078;2023-05-14T04:35:35;30.77;;;13.43;;
53971;SDS011;40530;53.062;6.078;2023-05-14T04:38:01;25.13;;;9.32;;
53971;SDS011;40530;53.062;6.078;2023-05-14T04:40:28;21.15;;;8.30;;
53971;SDS011;40530;53.062;6.078;2023-05-14T04:42:55;18.80;;;8.50;;
53971;SDS011;40530;53.062;6.078;2023-05-14T04:45:21;25.17;;;9.13;;
53971;SDS011;40530;53.062;6.078;2023-05-14T04:47:47;25.65;;;9.00;;
53971;SDS011;40530;53.062;6.078;2023-05-14T04:50:13;25.88;;;8.50;;
53971;SDS011;40530;53.062;6.078;2023-05-14T04:52:39;21.63;;;7.25;;
53971;SDS011;40530;53.062;6.078;2023-05-14T04:55:05;21.95;;;8.43;;
53971;SDS011;40530;53.062;6.078;2023-05-14T04:57:32;26.95;;;8.90;;
53971;SDS011;40530;53.062;6.078;2023-05-14T04:59:58;22.88;;;7.97;;
53971;SDS011;40530;53.062;6.078;2023-05-14T05:02:24;23.63;;;7.35;;
53971;SDS011;40530;53.062;6.078;2023-05-14T05:04:50;24.40;;;7.35;;
53971;SDS011;40530;53.062;6.078;2023-05-14T05:07:16;24.73;;;9.13;;
53971;SDS011;40530;53.062;6.078;2023-05-14T05:09:42;33.08;;;13.25;;
53971;SDS011;40530;53.062;6.078;2023-05-14T05:12:08;25.55;;;8.80;;
53971;SDS011;40530;53.062;6.078;2023-05-14T05:14:34;22.58;;;6.03;;
53971;SDS011;40530;53.062;6.078;2023-05-14T05:17:00;22.88;;;7.70;;
53971;SDS011;40530;53.062;6.078;2023-05-14T05:19:26;21.50;;;6.53;;
53971;SDS011;40530;53.062;6.078;2023-05-14T05:21:52;23.95;;;7.28;;
53971;SDS011;40530;53.062;6.078;2023-05-14T05:24:18;20.98;;;7.07;;
53971;SDS011;40530;53.062;6.078;2023-05-14T05:26:44;14.60;;;6.30;;
53971;SDS011;40530;53.062;6.078;2023-05-14T05:29:10;15.52;;;5.90;;
53971;SDS011;40530;53.062;6.078;2023-05-14T05:31:36;21.45;;;6.38;;
53971;SDS011;40530;53.062;6.078;2023-05-14T05:34:02;16.63;;;5.88;;
53971;SDS011;40530;53.062;6.078;2023-05-14T05:36:28;23.67;;;6.90;;
53971;SDS011;40530;53.062;6.078;2023-05-14T05:38:55;18.33;;;6.35;;
53971;SDS011;40530;53.062;6.078;2023-05-14T05:41:21;19.88;;;6.15;;
53971;SDS011;40530;53.062;6.078;2023-05-14T05:43:47;21.17;;;7.03;;
53971;SDS011;40530;53.062;6.078;2023-05-14T05:46:13;19.63;;;6.28;;
53971;SDS011;40530;53.062;6.078;2023-05-14T05:48:39;20.20;;;6.88;;
53971;SDS011;40530;53.062;6.078;2023-05-14T05:51:05;17.30;;;6.93;;
53971;SDS011;40530;53.062;6.078;2023-05-14T05:53:31;21.38;;;6.45;;
53971;SDS011;40530;53.062;6.078;2023-05-14T05:55:57;18.42;;;5.40;;
53971;SDS011;40530;53.062;6.078;2023-05-14T05:58:23;18.17;;;6.13;;
53971;SDS011;40530;53.062;6.078;2023-05-14T06:00:50;19.48;;;6.15;;
53971;SDS011;40530;53.062;6.078;2023-05-14T06:03:17;13.80;;;5.40;;
53971;SDS011;40530;53.062;6.078;2023-05-14T06:05:43;14.88;;;5.40;;
53971;SDS011;40530;53.062;6.078;2023-05-14T06:08:10;21.77;;;6.20;;
53971;SDS011;40530;53.062;6.078;2023-05-14T06:10:36;15.77;;;7.03;;
53971;SDS011;40530;53.062;6.078;2023-05-14T06:13:02;17.30;;;6.20;;
53971;SDS011;40530;53.062;6.078;2023-05-14T06:15:28;25.67;;;6.60;;
53971;SDS011;40530;53.062;6.078;2023-05-14T06:17:54;16.92;;;6.60;;
53971;SDS011;40530;53.062;6.078;2023-05-14T06:20:20;18.30;;;6.28;;
53971;SDS011;40530;53.062;6.078;2023-05-14T06:22:46;18.88;;;6.35;;
53971;SDS011;40530;53.062;6.078;2023-05-14T06:25:12;16.95;;;5.75;;
53971;SDS011;40530;53.062;6.078;2023-05-14T06:27:38;11.05;;;4.97;;
53971;SDS011;40530;53.062;6.078;2023-05-14T06:30:04;15.82;;;4.75;;
53971;SDS011;40530;53.062;6.078;2023-05-14T06:32:31;20.50;;;6.07;;
53971;SDS011;40530;53.062;6.078;2023-05-14T06:34:57;21.02;;;5.43;;
53971;SDS011;40530;53.062;6.078;2023-05-14T06:37:23;15.73;;;4.50;;
53971;SDS011;40530;53.062;6.078;2023-05-14T06:39:49;14.40;;;4.93;;
53971;SDS011;40530;53.062;6.078;2023-05-14T06:42:15;19.95;;;5.13;;
53971;SDS011;40530;53.062;6.078;2023-05-14T06:44:42;19.67;;;5.40;;
53971;SDS011;40530;53.062;6.078;2023-05-14T06:47:08;13.18;;;5.13;;
53971;SDS011;40530;53.062;6.078;2023-05-14T06:49:34;14.10;;;4.90;;
53971;SDS011;40530;53.062;6.078;2023-05-14T06:52:00;24.17;;;6.45;;
53971;SDS011;40530;53.062;6.078;2023-05-14T06:54:26;15.00;;;5.35;;
53971;SDS011;40530;53.062;6.078;2023-05-14T06:56:52;16.23;;;5.28;;
53971;SDS011;40530;53.062;6.078;2023-05-14T06:59:18;18.42;;;5.43;;
53971;SDS011;40530;53.062;6.078;2023-05-14T07:01:44;13.27;;;4.50;;
53971;SDS011;40530;53.062;6.078;2023-05-14T07:04:10;18.10;;;5.38;;
53971;SDS011;40530;53.062;6.078;2023-05-14T07:06:36;18.80;;;6.30;;
53971;SDS011;40530;53.062;6.078;2023-05-14T07:09:02;14.35;;;5.22;;
53971;SDS011;40530;53.062;6.078;2023-05-14T07:11:29;15.57;;;5.22;;
53971;SDS011;40530;53.062;6.078;2023-05-14T07:13:55;14.50;;;5.35;;
53971;SDS011;40530;53.062;6.078;2023-05-14T07:16:21;20.38;;;7.05;;
53971;SDS011;40530;53.062;6.078;2023-05-14T07:18:46;21.45;;;7.88;;
53971;SDS011;40530;53.062;6.078;2023-05-14T07:21:13;18.98;;;6.32;;
53971;SDS011;40530;53.062;6.078;2023-05-14T07:23:39;12.48;;;5.03;;
53971;SDS011;40530;53.062;6.078;2023-05-14T07:26:05;20.23;;;4.18;;
53971;SDS011;40530;53.062;6.078;2023-05-14T07:28:31;19.77;;;5.80;;
53971;SDS011;40530;53.062;6.078;2023-05-14T07:30:57;13.85;;;5.63;;
53971;SDS011;40530;53.062;6.078;2023-05-14T07:33:23;14.35;;;4.45;;
53971;SDS011;40530;53.062;6.078;2023-05-14T07:35:50;14.52;;;4.75;;
53971;SDS011;40530;53.062;6.078;2023-05-14T07:38:17;16.30;;;4.25;;
53971;SDS011;40530;53.062;6.078;2023-05-14T07:40:43;15.60;;;4.68;;
53971;SDS011;40530;53.062;6.078;2023-05-14T07:43:09;17.35;;;5.13;;
53971;SDS011;40530;53.062;6.078;2023-05-14T07:45:35;12.05;;;4.35;;
53971;SDS011;40530;53.062;6.078;2023-05-14T07:48:02;13.05;;;4.30;;
53971;SDS011;40530;53.062;6.078;2023-05-14T07:50:29;10.98;;;3.75;;
53971;SDS011;40530;53.062;6.078;2023-05-14T07:52:55;15.95;;;4.00;;
53971;SDS011;40530;53.062;6.078;2023-05-14T07:55:21;14.98;;;3.78;;
53971;SDS011;40530;53.062;6.078;2023-05-14T07:57:47;10.68;;;3.45;;
53971;SDS011;40530;53.062;6.078;2023-05-14T08:00:13;8.43;;;2.78;;
53971;SDS011;40530;53.062;6.078;2023-05-14T08:02:40;13.40;;;3.50;;
53971;SDS011;40530;53.062;6.078;2023-05-14T08:05:07;13.38;;;4.55;;
53971;SDS011;40530;53.062;6.078;2023-05-14T08:07:33;14.13;;;4.68;;
53971;SDS011;40530;53.062;6.078;2023-05-14T08:09:59;14.57;;;4.03;;
53971;SDS011;40530;53.062;6.078;2023-05-14T08:12:25;11.73;;;3.60;;
53971;SDS011;40530;53.062;6.078;2023-05-14T08:14:52;12.60;;;3.85;;
53971;SDS011;40530;53.062;6.078;2023-05-14T08:17:18;11.00;;;3.58;;
53971;SDS011;40530;53.062;6.078;2023-05-14T08:19:44;25.55;;;11.90;;
53971;SDS011;40530;53.062;6.078;2023-05-14T08:22:10;14.35;;;4.45;;
53971;SDS011;40530;53.062;6.078;2023-05-14T08:24:37;13.13;;;4.13;;
53971;SDS011;40530;53.062;6.078;2023-05-14T08:27:03;14.93;;;3.25;;
53971;SDS011;40530;53.062;6.078;2023-05-14T08:29:30;12.73;;;3.40;;
53971;SDS011;40530;53.062;6.078;2023-05-14T08:31:56;13.35;;;3.95;;
53971;SDS011;40530;53.062;6.078;2023-05-14T08:34:22;14.18;;;3.78;;
53971;SDS011;40530;53.062;6.078;2023-05-14T08:36:48;10.60;;;3.58;;
53971;SDS011;40530;53.062;6.078;2023-05-14T08:39:15;12.05;;;3.33;;
53971;SDS011;40530;53.062;6.078;2023-05-14T08:41:41;12.73;;;3.55;;
53971;SDS011;40530;53.062;6.078;2023-05-14T08:44:19;13.27;;;3.97;;
53971;SDS011;40530;53.062;6.078;2023-05-14T08:46:50;12.38;;;3.83;;
53971;SDS011;40530;53.062;6.078;2023-05-14T08:51:45;17.80;;;8.93;;
53971;SDS011;40530;53.062;6.078;2023-05-14T08:54:14;9.50;;;3.08;;
53971;SDS011;40530;53.062;6.078;2023-05-14T08:56:41;14.93;;;3.35;;
53971;SDS011;40530;53.062;6.078;2023-05-14T08:59:08;9.05;;;3.38;;
53971;SDS011;40530;53.062;6.078;2023-05-14T09:01:36;13.60;;;3.38;;
53971;SDS011;40530;53.062;6.078;2023-05-14T09:04:03;10.98;;;3.58;;
53971;SDS011;40530;53.062;6.078;2023-05-14T09:06:34;11.50;;;3.38;;
53971;SDS011;40530;53.062;6.078;2023-05-14T09:09:01;14.93;;;3.80;;
53971;SDS011;40530;53.062;6.078;2023-05-14T09:11:27;10.38;;;3.60;;
53971;SDS011;40530;53.062;6.078;2023-05-14T09:13:53;16.05;;;4.35;;
53971;SDS011;40530;53.062;6.078;2023-05-14T09:16:19;10.43;;;3.03;;
53971;SDS011;40530;53.062;6.078;2023-05-14T09:18:46;11.90;;;3.42;;
53971;SDS011;40530;53.062;6.078;2023-05-14T09:21:12;10.43;;;2.88;;
53971;SDS011;40530;53.062;6.078;2023-05-14T09:23:42;9.43;;;2.95;;
53971;SDS011;40530;53.062;6.078;2023-05-14T09:26:09;11.23;;;3.50;;
53971;SDS011;40530;53.062;6.078;2023-05-14T09:28:38;11.77;;;4.20;;
53971;SDS011;40530;53.062;6.078;2023-05-14T09:31:04;12.90;;;6.75;;
53971;SDS011;40530;53.062;6.078;2023-05-14T09:33:31;10.20;;;3.50;;
53971;SDS011;40530;53.062;6.078;2023-05-14T09:35:57;10.73;;;3.22;;
53971;SDS011;40530;53.062;6.078;2023-05-14T09:38:28;8.20;;;2.83;;
53971;SDS011;40530;53.062;6.078;2023-05-14T09:40:54;10.30;;;3.25;;
53971;SDS011;40530;53.062;6.078;2023-05-14T09:43:20;11.88;;;2.90;;
53971;SDS011;40530;53.062;6.078;2023-05-14T09:45:46;9.30;;;3.38;;
53971;SDS011;40530;53.062;6.078;2023-05-14T09:48:12;10.18;;;3.03;;
53971;SDS011;40530;53.062;6.078;2023-05-14T09:50:42;9.27;;;3.63;;
53971;SDS011;40530;53.062;6.078;2023-05-14T09:53:08;10.35;;;3.10;;
53971;SDS011;40530;53.062;6.078;2023-05-14T09:55:37;10.05;;;3.33;;
53971;SDS011;40530;53.062;6.078;2023-05-14T09:58:03;9.82;;;3.50;;
53971;SDS011;40530;53.062;6.078;2023-05-14T10:00:33;10.57;;;5.05;;
53971;SDS011;40530;53.062;6.078;2023-05-14T10:02:59;8.13;;;3.20;;
53971;SDS011;40530;53.062;6.078;2023-05-14T10:05:27;11.15;;;3.58;;
53971;SDS011;40530;53.062;6.078;2023-05-14T10:07:53;8.80;;;3.58;;
53971;SDS011;40530;53.062;6.078;2023-05-14T10:10:23;10.80;;;3.60;;
53971;SDS011;40530;53.062;6.078;2023-05-14T10:12:50;12.35;;;3.17;;
53971;SDS011;40530;53.062;6.078;2023-05-14T10:15:23;9.93;;;3.05;;
53971;SDS011;40530;53.062;6.078;2023-05-14T10:17:54;11.50;;;3.45;;
53971;SDS011;40530;53.062;6.078;2023-05-14T10:20:21;8.75;;;3.60;;
53971;SDS011;40530;53.062;6.078;2023-05-14T10:22:47;11.07;;;3.33;;
53971;SDS011;40530;53.062;6.078;2023-05-14T10:25:13;9.27;;;3.10;;
53971;SDS011;40530;53.062;6.078;2023-05-14T10:27:39;8.93;;;3.03;;
53971;SDS011;40530;53.062;6.078;2023-05-14T10:30:09;12.02;;;4.00;;
53971;SDS011;40530;53.062;6.078;2023-05-14T10:32:36;8.50;;;3.00;;
53971;SDS011;40530;53.062;6.078;2023-05-14T10:35:10;13.30;;;3.90;;
53971;SDS011;40530;53.062;6.078;2023-05-14T10:37:39;12.45;;;3.78;;
53971;SDS011;40530;53.062;6.078;2023-05-14T10:40:05;8.68;;;3.35;;
53971;SDS011;40530;53.062;6.078;2023-05-14T10:42:32;10.27;;;3.60;;
53971;SDS011;40530;53.062;6.078;2023-05-14T10:45:00;8.27;;;3.67;;
53971;SDS011;40530;53.062;6.078;2023-05-14T10:47:27;7.10;;;3.25;;
53971;SDS011;40530;53.062;6.078;2023-05-14T10:49:54;6.05;;;3.15;;
53971;SDS011;40530;53.062;6.078;2023-05-14T10:52:21;12.13;;;3.47;;
53971;SDS011;40530;53.062;6.078;2023-05-14T10:55:03;12.80;;;4.95;;
53971;SDS011;40530;53.062;6.078;2023-05-14T10:57:34;9.02;;;3.78;;
53971;SDS011;40530;53.062;6.078;2023-05-14T11:00:00;15.35;;;4.60;;
53971;SDS011;40530;53.062;6.078;2023-05-14T11:02:27;10.25;;;3.40;;
53971;SDS011;40530;53.062;6.078;2023-05-14T11:05:00;8.05;;;4.10;;
53971;SDS011;40530;53.062;6.078;2023-05-14T11:07:39;11.80;;;4.43;;
53971;SDS011;40530;53.062;6.078;2023-05-14T11:10:09;10.07;;;3.60;;
53971;SDS011;40530;53.062;6.078;2023-05-14T11:12:36;9.50;;;3.65;;
53971;SDS011;40530;53.062;6.078;2023-05-14T11:15:04;12.45;;;4.15;;
53971;SDS011;40530;53.062;6.078;2023-05-14T11:17:31;11.52;;;3.97;;
53971;SDS011;40530;53.062;6.078;2023-05-14T11:19:57;11.88;;;4.13;;
53971;SDS011;40530;53.062;6.078;2023-05-14T11:22:23;12.02;;;4.30;;
53971;SDS011;40530;53.062;6.078;2023-05-14T11:24:50;14.20;;;4.05;;
53971;SDS011;40530;53.062;6.078;2023-05-14T11:27:16;14.25;;;3.67;;
53971;SDS011;40530;53.062;6.078;2023-05-14T11:29:43;13.38;;;4.40;;
53971;SDS011;40530;53.062;6.078;2023-05-14T11:32:13;13.82;;;4.15;;
53971;SDS011;40530;53.062;6.078;2023-05-14T11:34:40;17.15;;;8.35;;
53971;SDS011;40530;53.062;6.078;2023-05-14T11:37:07;7.30;;;4.00;;
53971;SDS011;40530;53.062;6.078;2023-05-14T11:39:34;7.60;;;3.63;;
53971;SDS011;40530;53.062;6.078;2023-05-14T11:42:01;8.68;;;3.83;;
53971;SDS011;40530;53.062;6.078;2023-05-14T11:44:28;9.80;;;3.95;;
53971;SDS011;40530;53.062;6.078;2023-05-14T11:46:57;10.02;;;4.15;;
53971;SDS011;40530;53.062;6.078;2023-05-14T11:49:24;12.95;;;4.68;;
53971;SDS011;40530;53.062;6.078;2023-05-14T11:52:00;9.73;;;3.80;;
53971;SDS011;40530;53.062;6.078;2023-05-14T11:54:29;11.10;;;4.43;;
53971;SDS011;40530;53.062;6.078;2023-05-14T11:56:56;12.40;;;4.10;;
53971;SDS011;40530;53.062;6.078;2023-05-14T11:59:29;5.43;;;2.58;;
53971;SDS011;40530;53.062;6.078;2023-05-14T12:01:56;7.95;;;3.08;;
53971;SDS011;40530;53.062;6.078;2023-05-14T12:04:22;16.40;;;4.03;;
53971;SDS011;40530;53.062;6.078;2023-05-14T12:06:48;9.05;;;3.65;;
53971;SDS011;40530;53.062;6.078;2023-05-14T12:09:21;6.90;;;2.97;;
53971;SDS011;40530;53.062;6.078;2023-05-14T12:11:48;14.18;;;7.20;;
53971;SDS011;40530;53.062;6.078;2023-05-14T12:14:15;10.73;;;3.55;;
53971;SDS011;40530;53.062;6.078;2023-05-14T12:16:44;8.50;;;2.80;;
53971;SDS011;40530;53.062;6.078;2023-05-14T12:19:11;8.55;;;2.72;;
53971;SDS011;40530;53.062;6.078;2023-05-14T12:21:39;5.35;;;2.72;;
53971;SDS011;40530;53.062;6.078;2023-05-14T12:24:08;5.90;;;3.08;;
53971;SDS011;40530;53.062;6.078;2023-05-14T12:26:38;8.63;;;2.83;;
53971;SDS011;40530;53.062;6.078;2023-05-14T12:29:05;11.27;;;5.07;;
53971;SDS011;40530;53.062;6.078;2023-05-14T12:31:34;9.57;;;4.43;;
53971;SDS011;40530;53.062;6.078;2023-05-14T12:34:01;10.70;;;3.45;;
53971;SDS011;40530;53.062;6.078;2023-05-14T12:36:27;8.80;;;3.53;;
53971;SDS011;40530;53.062;6.078;2023-05-14T12:38:58;8.48;;;3.50;;
53971;SDS011;40530;53.062;6.078;2023-05-14T12:41:25;12.13;;;3.45;;
53971;SDS011;40530;53.062;6.078;2023-05-14T12:43:51;8.98;;;3.83;;
53971;SDS011;40530;53.062;6.078;2023-05-14T12:46:17;11.80;;;3.38;;
53971;SDS011;40530;53.062;6.078;2023-05-14T12:48:43;6.00;;;3.65;;
53971;SDS011;40530;53.062;6.078;2023-05-14T12:51:10;9.68;;;2.95;;
53971;SDS011;40530;53.062;6.078;2023-05-14T12:53:36;11.30;;;4.07;;
53971;SDS011;40530;53.062;6.078;2023-05-14T12:56:02;8.95;;;3.05;;
53971;SDS011;40530;53.062;6.078;2023-05-14T12:58:28;8.25;;;3.10;;
53971;SDS011;40530;53.062;6.078;2023-05-14T13:00:54;5.70;;;2.95;;
53971;SDS011;40530;53.062;6.078;2023-05-14T13:03:20;11.95;;;4.47;;
53971;SDS011;40530;53.062;6.078;2023-05-14T13:05:46;13.57;;;3.15;;
53971;SDS011;40530;53.062;6.078;2023-05-14T13:08:12;10.02;;;3.30;;
53971;SDS011;40530;53.062;6.078;2023-05-14T13:10:42;12.48;;;3.30;;
53971;SDS011;40530;53.062;6.078;2023-05-14T13:13:08;10.20;;;3.50;;
53971;SDS011;40530;53.062;6.078;2023-05-14T13:15:35;7.63;;;3.13;;
53971;SDS011;40530;53.062;6.078;2023-05-14T13:18:01;12.82;;;4.63;;
53971;SDS011;40530;53.062;6.078;2023-05-14T13:20:27;11.43;;;4.00;;
53971;SDS011;40530;53.062;6.078;2023-05-14T13:22:55;9.90;;;3.15;;
53971;SDS011;40530;53.062;6.078;2023-05-14T13:25:21;8.95;;;3.15;;
53971;SDS011;40530;53.062;6.078;2023-05-14T13:27:47;5.75;;;2.85;;
53971;SDS011;40530;53.062;6.078;2023-05-14T13:30:18;10.88;;;3.33;;
53971;SDS011;40530;53.062;6.078;2023-05-14T13:32:44;10.02;;;3.63;;
53971;SDS011;40530;53.062;6.078;2023-05-14T13:35:10;12.52;;;3.03;;
53971;SDS011;40530;53.062;6.078;2023-05-14T13:37:36;10.15;;;3.13;;
53971;SDS011;40530;53.062;6.078;2023-05-14T13:40:03;10.02;;;3.15;;
53971;SDS011;40530;53.062;6.078;2023-05-14T13:42:31;9.98;;;3.08;;
53971;SDS011;40530;53.062;6.078;2023-05-14T13:44:57;11.10;;;3.70;;
53971;SDS011;40530;53.062;6.078;2023-05-14T13:47:24;9.00;;;3.20;;
53971;SDS011;40530;53.062;6.078;2023-05-14T13:49:53;6.55;;;2.63;;
53971;SDS011;40530;53.062;6.078;2023-05-14T13:52:20;7.80;;;3.17;;
53971;SDS011;40530;53.062;6.078;2023-05-14T13:54:46;7.22;;;2.80;;
53971;SDS011;40530;53.062;6.078;2023-05-14T13:57:12;2.28;;;2.00;;
53971;SDS011;40530;53.062;6.078;2023-05-14T13:59:38;9.32;;;2.63;;
53971;SDS011;40530;53.062;6.078;2023-05-14T14:02:05;5.95;;;2.50;;
53971;SDS011;40530;53.062;6.078;2023-05-14T14:04:31;5.13;;;2.60;;
53971;SDS011;40530;53.062;6.078;2023-05-14T14:06:56;6.60;;;2.25;;
53971;SDS011;40530;53.062;6.078;2023-05-14T14:09:23;8.80;;;2.25;;
53971;SDS011;40530;53.062;6.078;2023-05-14T14:11:49;5.00;;;2.58;;
53971;SDS011;40530;53.062;6.078;2023-05-14T14:14:15;10.35;;;2.08;;
53971;SDS011;40530;53.062;6.078;2023-05-14T14:16:41;8.55;;;2.03;;
53971;SDS011;40530;53.062;6.078;2023-05-14T14:19:08;5.95;;;2.40;;
53971;SDS011;40530;53.062;6.078;2023-05-14T14:21:34;11.65;;;5.30;;
53971;SDS011;40530;53.062;6.078;2023-05-14T14:24:00;16.77;;;7.40;;
53971;SDS011;40530;53.062;6.078;2023-05-14T14:26:26;11.85;;;3.35;;
53971;SDS011;40530;53.062;6.078;2023-05-14T14:28:53;11.45;;;3.00;;
53971;SDS011;40530;53.062;6.078;2023-05-14T14:31:19;15.77;;;3.00;;
53971;SDS011;40530;53.062;6.078;2023-05-14T14:33:45;6.65;;;3.42;;
53971;SDS011;40530;53.062;6.078;2023-05-14T14:36:11;8.93;;;3.25;;
53971;SDS011;40530;53.062;6.078;2023-05-14T14:38:37;9.98;;;3.33;;